Time;durP1;ratioP1;P1;durP2;ratioP2;P2;SDS_P1;SDS_P2;PMS_P1;PMS_P2;Temp;Humidity;BMP_temperature;BMP_pressure;BME280_temperature;BME280_humidity;BME280_pressure;Samples;Min_cycle;Max_cycle;Signal;HPM_P1;HPM_P2
2021/04/15 00:00:40;;;;;;;29.42;21.10;;;;;;;8.91;72.51;98944.31;1764541;81;21087;-62
2021/04/15 00:03:15;;;;;;;26.50;20.08;;;;;;;8.87;72.79;98941.46;1764517;81;21063;-63
2021/04/15 00:05:44;;;;;;;26.42;20.32;;;;;;;8.85;73.03;98945.87;1764490;81;21336;-62
2021/04/15 00:08:14;;;;;;;27.60;22.37;;;;;;;8.83;73.29;98943.80;1759894;81;21512;-62
2021/04/15 00:10:45;;;;;;;27.73;22.32;;;;;;;8.86;73.60;98941.53;1758914;81;21099;-62
2021/04/15 00:13:35;;;;;;;27.22;22.73;;;;;;;8.90;73.70;98944.38;1759044;81;21087;-62
2021/04/15 00:16:05;;;;;;;24.80;20.88;;;;;;;8.92;73.62;98937.38;1758893;81;21051;-62
2021/04/15 00:18:33;;;;;;;25.20;21.17;;;;;;;8.94;73.57;98934.27;1758812;81;22398;-62
2021/04/15 00:21:05;;;;;;;25.57;20.75;;;;;;;8.94;73.42;98932.97;1758786;81;21087;-62
2021/04/15 00:23:32;;;;;;;27.00;21.25;;;;;;;8.94;73.54;98937.70;1758922;80;21539;-63
2021/04/15 00:26:01;;;;;;;27.10;20.43;;;;;;;8.97;73.67;98937.58;1758746;81;21582;-62
2021/04/15 00:28:29;;;;;;;25.20;19.80;;;;;;;9.00;73.65;98933.98;1758935;81;21662;-63
2021/04/15 00:30:56;;;;;;;25.70;19.92;;;;;;;9.03;73.71;98939.04;1758843;81;22381;-63
2021/04/15 00:33:25;;;;;;;27.98;20.88;;;;;;;9.06;73.69;98938.06;1758780;80;21099;-62
2021/04/15 00:35:54;;;;;;;24.98;20.60;;;;;;;9.09;73.73;98939.23;1758836;81;21056;-62
2021/04/15 00:38:24;;;;;;;26.60;21.50;;;;;;;9.10;73.70;98935.28;1758775;81;21127;-62
2021/04/15 00:40:52;;;;;;;32.15;22.40;;;;;;;9.11;73.65;98934.37;1758933;81;21576;-62
2021/04/15 00:43:22;;;;;;;32.05;23.42;;;;;;;9.15;73.86;98935.09;1758844;81;21531;-62
2021/04/15 00:45:52;;;;;;;42.20;28.38;;;;;;;9.15;73.96;98930.73;1758752;80;21147;-61
2021/04/15 00:48:39;;;;;;;42.58;28.67;;;;;;;9.16;73.95;98930.28;1758805;81;21131;-62
2021/04/15 00:51:16;;;;;;;45.12;31.82;;;;;;;9.16;73.68;98928.53;1758901;81;21469;-62
2021/04/15 00:53:50;;;;;;;38.15;28.30;;;;;;;9.17;73.19;98928.92;1757279;80;21076;-62
2021/04/15 00:56:19;;;;;;;58.20;29.87;;;;;;;9.17;72.92;98922.44;1758811;80;21174;-62
2021/04/15 00:58:49;;;;;;;39.13;25.90;;;;;;;9.14;72.79;98923.02;1758758;81;21060;-62
2021/04/15 01:01:17;;;;;;;31.05;24.65;;;;;;;9.07;72.78;98922.89;1758809;80;21056;-62
2021/04/15 01:03:48;;;;;;;31.57;23.22;;;;;;;8.98;72.93;98928.05;1758839;80;21213;-62
2021/04/15 01:06:16;;;;;;;28.67;22.10;;;;;;;8.89;73.22;98918.91;1758776;81;21480;-62
2021/04/15 01:08:44;;;;;;;26.48;19.90;;;;;;;8.86;73.66;98916.89;1763594;81;22140;-62
2021/04/15 01:11:31;;;;;;;24.95;19.37;;;;;;;8.83;73.80;98917.86;1764435;81;21090;-62
2021/04/15 01:14:23;;;;;;;21.15;16.87;;;;;;;8.80;73.96;98920.58;1764477;81;21063;-63
2021/04/15 01:17:08;;;;;;;27.15;19.10;;;;;;;8.81;73.91;98912.34;1764491;80;21134;-61
2021/04/15 01:19:56;;;;;;;21.45;18.65;;;;;;;8.76;73.96;98908.68;1764517;80;21496;-61
2021/04/15 01:22:48;;;;;;;21.42;16.35;;;;;;;8.70;74.39;98908.09;1764472;80;22603;-61
2021/04/15 01:25:45;;;;;;;24.98;16.82;;;;;;;8.65;74.83;98906.98;1764420;81;21063;-61
2021/04/15 01:28:25;;;;;;;26.42;17.85;;;;;;;8.63;75.15;98898.42;1764304;80;21052;-61
2021/04/15 01:31:04;;;;;;;21.27;16.87;;;;;;;8.58;75.36;98899.09;1764496;81;21115;-61
2021/04/15 01:33:40;;;;;;;19.52;16.35;;;;;;;8.53;75.60;98895.40;1764583;80;21498;-61
2021/04/15 01:36:19;;;;;;;18.65;16.00;;;;;;;8.51;75.59;98895.07;1764487;80;21365;-61
2021/04/15 01:38:52;;;;;;;19.25;15.43;;;;;;;8.49;75.57;98894.29;1764471;80;21066;-61
2021/04/15 01:41:34;;;;;;;17.55;15.13;;;;;;;8.45;75.58;98895.31;1764618;80;21119;-61
2021/04/15 01:44:15;;;;;;;18.50;15.38;;;;;;;8.44;75.63;98889.75;1747535;81;21161;-61
2021/04/15 01:46:43;;;;;;;21.10;16.30;;;;;;;8.43;75.76;98894.08;1763191;81;21079;-63
2021/04/15 01:49:13;;;;;;;21.82;16.65;;;;;;;8.44;75.92;98894.92;1764473;81;21356;-62
2021/04/15 01:51:47;;;;;;;19.90;17.10;;;;;;;8.46;75.98;98892.66;1764397;80;21150;-62
2021/04/15 01:54:20;;;;;;;19.50;16.80;;;;;;;8.48;75.97;98892.60;1764577;81;21055;-62
2021/04/15 01:57:08;;;;;;;18.73;15.70;;;;;;;8.51;75.74;98888.59;1764609;81;21047;-62
2021/04/15 01:59:51;;;;;;;19.60;16.65;;;;;;;8.54;75.39;98893.65;1764498;81;21065;-62
2021/04/15 02:02:25;;;;;;;19.92;15.85;;;;;;;8.52;75.28;98888.53;1764580;81;22083;-62
2021/04/15 02:05:07;;;;;;;16.62;14.80;;;;;;;8.54;75.32;98890.61;1764416;81;21110;-62
2021/04/15 02:07:39;;;;;;;18.77;15.43;;;;;;;8.58;75.20;98890.03;1764563;81;21111;-62
2021/04/15 02:10:10;;;;;;;16.57;14.83;;;;;;;8.61;75.11;98886.82;1764439;81;21859;-62
2021/04/15 02:12:42;;;;;;;17.25;15.45;;;;;;;8.70;75.04;98889.94;1764634;80;21139;-62
2021/04/15 02:15:25;;;;;;;17.82;14.60;;;;;;;8.74;74.84;98886.31;1764841;81;22330;-62
2021/04/15 02:18:04;;;;;;;20.48;15.63;;;;;;;8.77;74.63;98889.63;1762524;80;21087;-62
2021/04/15 02:20:32;;;;;;;19.25;14.98;;;;;;;8.75;74.59;98889.30;1748806;81;21130;-62
2021/04/15 02:23:20;;;;;;;18.07;13.75;;;;;;;8.77;74.49;98880.55;1764671;80;21603;-62
2021/04/15 02:26:14;;;;;;;18.12;14.20;;;;;;;8.80;74.38;98883.44;1742139;81;21060;-61
2021/04/15 02:28:53;;;;;;;20.95;16.27;;;;;;;8.79;74.52;98886.97;1764629;80;21242;-60
2021/04/15 02:31:27;;;;;;;18.15;15.72;;;;;;;8.79;74.91;98885.19;1763823;80;21678;-60
2021/04/15 02:34:00;;;;;;;18.60;14.95;;;;;;;8.80;74.95;98880.84;1764608;81;21067;-60
2021/04/15 02:36:37;;;;;;;20.45;15.95;;;;;;;8.81;74.94;98878.64;1764563;81;21186;-60
2021/04/15 02:39:26;;;;;;;17.67;15.13;;;;;;;8.84;74.91;98877.21;1764631;81;21059;-60
2021/04/15 02:42:05;;;;;;;27.95;15.20;;;;;;;8.93;74.90;98877.67;1873638;76;22715;-62
2021/04/15 02:44:48;;;;;;;16.27;14.10;;;;;;;8.89;74.86;98881.30;1841771;78;21160;-62
2021/04/15 02:47:23;;;;;;;19.20;14.63;;;;;;;8.87;74.96;98877.08;1841757;78;21561;-61
2021/04/15 02:49:51;;;;;;;19.55;14.33;;;;;;;8.79;75.37;98878.70;1841036;77;21061;-61
2021/04/15 02:52:22;;;;;;;14.13;12.63;;;;;;;8.74;75.67;98885.02;1841581;78;21024;-61
2021/04/15 02:54:56;;;;;;;15.18;13.58;;;;;;;8.67;76.07;98881.00;1841599;78;21046;-61
2021/04/15 02:57:37;;;;;;;15.55;12.73;;;;;;;8.58;76.44;98881.80;1841715;78;21517;-61
2021/04/15 03:00:21;;;;;;;17.48;13.43;;;;;;;8.57;76.66;98881.41;1841592;77;21596;-62
2021/04/15 03:03:02;;;;;;;16.55;13.10;;;;;;;8.59;76.74;98872.27;1841626;78;20927;-61
2021/04/15 03:05:35;;;;;;;15.00;13.38;;;;;;;8.62;76.70;98876.00;1841744;77;21432;-61
2021/04/15 03:08:03;;;;;;;20.65;14.38;;;;;;;8.64;76.23;98873.73;1841775;77;21451;-61
2021/04/15 03:10:37;;;;;;;18.70;15.13;;;;;;;8.63;75.93;98878.53;1841598;78;21064;-62
2021/04/15 03:13:11;;;;;;;;;;;;;;;8.63;75.56;98877.23;1844304;78;21175;-61
2021/04/15 03:15:51;;;;;;;21.27;15.30;;;;;;;8.57;75.39;98871.04;1841676;77;20229;-61
2021/04/15 03:18:33;;;;;;;15.83;13.65;;;;;;;8.53;75.40;98880.30;1841483;78;21069;-61
2021/04/15 03:21:29;;;;;;;15.25;12.78;;;;;;;8.50;75.24;98875.23;1841460;77;21156;-61
2021/04/15 03:24:01;;;;;;;18.35;14.28;;;;;;;8.46;75.39;98869.80;1841681;78;21534;-61
2021/04/15 03:26:54;;;;;;;17.57;13.90;;;;;;;8.45;75.32;98868.11;1841847;78;22444;-61
2021/04/15 03:29:49;;;;;;;15.75;13.75;;;;;;;8.47;75.17;98870.19;1841691;78;21494;-61
2021/04/15 03:32:37;;;;;;;21.82;15.85;;;;;;;8.46;74.99;98876.27;1841560;77;21106;-61
2021/04/15 03:35:16;;;;;;;21.95;17.95;;;;;;;8.41;74.90;98880.34;1841554;77;21120;-62
2021/04/15 03:37:57;;;;;;;26.87;17.23;;;;;;;8.36;74.84;98872.40;1819601;78;21120;-62
2021/04/15 03:40:28;;;;;;;36.23;23.52;;;;;;;8.32;74.79;98876.86;1781670;79;21365;-62
2021/04/15 03:43:02;;;;;;;16.37;14.63;;;;;;;8.31;74.67;98872.55;1817140;79;21100;-62
2021/04/15 03:46:11;;;;;;;20.68;15.40;;;;;;;8.29;74.66;98875.20;1817090;79;21045;-62
2021/04/15 03:48:48;;;;;;;19.77;15.70;;;;;;;8.29;74.75;98877.80;1817034;79;21698;-62
2021/04/15 03:51:20;;;;;;;19.00;13.10;;;;;;;8.35;74.90;98881.92;1817049;79;21100;-62
2021/04/15 03:54:13;;;;;;;17.12;14.50;;;;;;;8.42;74.74;98883.33;1816489;79;21361;-62
2021/04/15 03:56:45;;;;;;;15.18;13.28;;;;;;;8.46;74.66;98884.89;1813860;79;21140;-62
2021/04/15 03:59:37;;;;;;;14.07;12.47;;;;;;;8.53;74.37;98880.30;1816629;79;21192;-62
2021/04/15 04:02:22;;;;;;;12.55;11.25;;;;;;;8.60;74.03;98890.77;1816446;79;21124;-61
2021/04/15 04:05:15;;;;;;;20.57;12.82;;;;;;;8.67;73.47;98893.95;1808477;78;21058;-61
2021/04/15 04:07:48;;;;;;;14.60;13.10;;;;;;;;;;1816651;79;21461;-61
2021/04/15 04:10:29;;;;;;;14.95;12.28;;;;;;;8.61;72.60;98897.19;1816559;78;20993;-61
2021/04/15 04:13:25;;;;;;;14.05;12.60;;;;;;;8.61;72.59;98895.90;1816446;79;21077;-62
2021/04/15 04:16:21;;;;;;;18.62;14.60;;;;;;;8.63;72.44;98897.97;1816484;79;21092;-62
2021/04/15 04:19:27;;;;;;;19.98;16.30;;;;;;;8.66;72.24;98898.30;1816451;79;21069;-63
2021/04/15 04:22:07;;;;;;;36.98;16.30;;;;;;;8.68;72.20;98897.78;1816432;79;21367;-62
2021/04/15 04:24:55;;;;;;;31.42;15.75;;;;;;;8.73;72.49;98895.00;1815923;78;21160;-63
2021/04/15 04:27:36;;;;;;;22.17;15.32;;;;;;;8.79;72.86;98900.74;1816474;79;21090;-61
2021/04/15 04:30:14;;;;;;;18.52;14.38;;;;;;;8.83;72.86;98897.56;1816490;79;21609;-61
2021/04/15 04:32:41;;;;;;;22.17;13.43;;;;;;;8.86;72.64;98898.28;1816488;78;21049;-61
2021/04/15 04:35:18;;;;;;;20.62;13.78;;;;;;;8.89;72.26;98896.86;1791914;79;22275;-61
2021/04/15 04:37:49;;;;;;;22.90;14.33;;;;;;;8.94;71.96;98887.59;1816437;77;21104;-62
2021/04/15 04:40:25;;;;;;;21.77;13.98;;;;;;;9.00;71.64;98893.78;1816302;78;21569;-62
2021/04/15 04:42:57;;;;;;;17.37;12.70;;;;;;;9.07;71.58;98898.25;1813598;79;21057;-61
2021/04/15 04:45:26;;;;;;;17.27;12.80;;;;;;;9.14;71.28;98898.38;1813607;79;21135;-62
2021/04/15 04:47:59;;;;;;;16.35;12.55;;;;;;;9.18;70.95;98899.47;1813543;79;21254;-62
2021/04/15 04:50:34;;;;;;;25.30;14.70;;;;;;;9.24;70.63;98896.58;1813643;78;28055;-62
2021/04/15 04:53:06;;;;;;;13.70;12.25;;;;;;;9.28;70.63;98892.94;1813564;79;21125;-62
2021/04/15 04:55:42;;;;;;;22.13;13.13;;;;;;;9.35;70.52;98897.41;1813549;79;21141;-62
2021/04/15 04:58:12;;;;;;;20.17;12.28;;;;;;;9.42;70.46;98900.09;1813583;78;21057;-62
2021/04/15 05:00:47;;;;;;;15.35;12.82;;;;;;;9.52;70.21;98900.07;1813485;78;21356;-62
2021/04/15 05:03:21;;;;;;;16.23;12.40;;;;;;;9.61;69.98;98900.08;1812960;79;21163;-61
2021/04/15 05:05:54;;;;;;;26.07;14.83;;;;;;;9.72;69.62;98903.03;1813648;78;21466;-61
2021/04/15 05:08:47;;;;;;;16.65;12.50;;;;;;;9.90;69.39;98903.47;1873619;75;22806;-62
2021/04/15 05:11:14;;;;;;;18.00;13.68;;;;;;;9.95;68.88;98901.50;1839610;77;21160;-62
2021/04/15 05:13:43;;;;;;;20.08;13.72;;;;;;;10.03;68.47;98903.70;1841407;77;21364;-61
2021/04/15 05:16:11;;;;;;;17.92;13.53;;;;;;;10.08;68.36;98902.19;1841473;77;21049;-62
2021/04/15 05:18:39;;;;;;;18.42;13.65;;;;;;;10.14;68.18;98907.95;1841587;78;21046;-61
2021/04/15 05:21:22;;;;;;;24.40;14.45;;;;;;;10.24;67.83;98897.50;1841579;77;20931;-63
2021/04/15 05:24:03;;;;;;;18.10;14.47;;;;;;;10.36;67.77;98903.87;1888574;76;22659;-61
2021/04/15 05:26:45;;;;;;;18.00;14.90;;;;;;;10.44;67.56;98896.97;1888565;75;23961;-62
2021/04/15 05:29:27;;;;;;;22.52;14.63;;;;;;;10.49;67.30;98898.89;1775338;80;21060;-62
2021/04/15 05:31:58;;;;;;;18.40;14.70;;;;;;;10.59;66.75;98891.83;1773971;81;21202;-64
2021/04/15 05:34:34;;;;;;;22.82;14.98;;;;;;;10.73;66.39;98895.05;1775188;80;21056;-62
2021/04/15 05:37:04;;;;;;;18.82;15.00;;;;;;;10.87;66.22;98896.94;1759155;81;21082;-62
2021/04/15 05:39:31;;;;;;;17.80;14.28;;;;;;;10.99;65.81;98893.72;1775264;80;20929;-62
2021/04/15 05:42:23;;;;;;;16.85;14.98;;;;;;;11.08;65.39;98893.22;1743265;82;21129;-61
2021/04/15 05:45:02;;;;;;;17.07;14.63;;;;;;;11.18;64.92;98893.59;1768790;80;21525;-64
2021/04/15 05:47:34;;;;;;;18.20;15.95;;;;;;;11.22;64.73;98895.92;1743194;82;20971;-62
2021/04/15 05:50:14;;;;;;;19.25;15.20;;;;;;;11.30;64.30;98892.46;1775356;80;21496;-62
2021/04/15 05:52:46;;;;;;;19.02;16.67;;;;;;;11.33;64.18;98894.06;1743179;82;21081;-61
2021/04/15 05:55:23;;;;;;;24.37;15.65;;;;;;;11.40;64.16;98896.23;1774579;80;21083;-63
2021/04/15 05:57:58;;;;;;;19.37;14.83;;;;;;;11.52;64.04;98899.12;1741863;81;21487;-62
2021/04/15 06:00:38;;;;;;;28.55;15.38;;;;;;;11.62;63.47;98898.52;1775116;80;21182;-61
2021/04/15 06:03:50;;;;;;;15.13;13.53;;;;;;;11.74;63.25;98895.27;1743123;82;21169;-62
2021/04/15 06:06:20;;;;;;;17.32;14.03;;;;;;;11.89;62.75;98896.66;1775262;80;21136;-63
2021/04/15 06:08:49;;;;;;;22.37;14.55;;;;;;;11.98;62.25;98899.61;1716533;82;21133;-61
2021/04/15 06:11:43;;;;;;;19.65;14.68;;;;;;;12.06;62.15;98903.91;1775206;80;21359;-63
2021/04/15 06:14:32;;;;;;;24.57;19.57;;;;;;;12.13;61.87;98900.97;1759826;80;21566;-62
2021/04/15 06:17:14;;;;;;;25.23;17.85;;;;;;;12.17;61.73;98909.84;1775179;80;21117;-61
2021/04/15 06:19:44;;;;;;;20.10;16.13;;;;;;;12.19;61.83;98901.44;1775450;80;21510;-63
2021/04/15 06:22:23;;;;;;;23.95;17.85;;;;;;;12.19;61.86;98907.95;1816354;79;21056;-63
2021/04/15 06:24:56;;;;;;;32.05;17.17;;;;;;;12.16;61.79;98917.73;1774981;80;21311;-63
2021/04/15 06:27:25;;;;;;;34.27;17.15;;;;;;;12.09;61.92;98910.72;1816407;79;21102;-61
2021/04/15 06:30:04;;;;;;;27.52;16.82;;;;;;;12.07;62.38;98905.59;1816448;78;21044;-62
2021/04/15 06:32:42;;;;;;;25.17;19.80;;;;;;;12.12;62.66;98911.02;1808408;78;21043;-61
2021/04/15 06:35:22;;;;;;;26.57;17.57;;;;;;;12.16;62.73;98908.62;1775198;80;21489;-62
2021/04/15 06:38:00;;;;;;;24.43;17.05;;;;;;;12.26;62.71;98908.45;1815504;77;21365;-62
2021/04/15 06:41:01;;;;;;;19.30;16.32;;;;;;;12.37;62.51;98905.63;1774589;80;21203;-61
2021/04/15 06:44:06;;;;;;;20.20;15.70;;;;;;;12.51;62.26;98907.89;1814826;78;21083;-61
2021/04/15 06:47:42;;;;;;;24.75;17.00;;;;;;;12.81;62.22;98903.46;1888543;76;22341;-62
2021/04/15 06:50:32;;;;;;;18.25;16.25;;;;;;;12.85;61.96;98907.58;1775396;80;21060;-62
2021/04/15 06:53:40;;;;;;;22.32;15.65;;;;;;;13.03;61.52;98916.06;1773958;81;22329;-62
2021/04/15 06:56:50;;;;;;;22.90;16.65;;;;;;;13.16;61.36;98913.61;1775166;80;20933;-63
2021/04/15 07:00:04;;;;;;;25.85;17.95;;;;;;;13.27;60.51;98909.39;1773835;81;21123;-62
2021/04/15 07:02:54;;;;;;;23.87;17.55;;;;;;;13.35;60.52;98900.64;1775140;80;21201;-62
2021/04/15 07:05:28;;;;;;;26.02;17.27;;;;;;;13.38;60.26;98897.84;1774011;81;21465;-62
2021/04/15 07:08:02;;;;;;;29.92;17.65;;;;;;;13.36;60.04;98908.01;1775181;80;21387;-63
2021/04/15 07:11:04;;;;;;;18.73;14.73;;;;;;;13.32;59.79;98910.42;1774074;81;21029;-63
2021/04/15 07:13:54;;;;;;;20.40;16.30;;;;;;;13.33;59.79;98899.89;1775197;80;21174;-63
2021/04/15 07:16:56;;;;;;;37.93;21.05;;;;;;;13.38;59.41;98904.84;1773814;81;21052;-63
2021/04/15 07:19:45;;;;;;;23.35;16.00;;;;;;;13.33;59.49;98902.50;1775164;80;21213;-63
2021/04/15 07:22:43;;;;;;;17.87;15.30;;;;;;;13.30;59.67;98905.30;1773770;81;21079;-62
2021/04/15 07:25:56;;;;;;;19.65;15.72;;;;;;;13.28;59.75;98901.94;1764279;80;21138;-62
2021/04/15 07:29:11;;;;;;;28.45;14.93;;;;;;;13.14;60.40;98901.92;1744224;82;21179;-63
2021/04/15 07:32:21;;;;;;;17.48;15.25;;;;;;;12.93;61.02;98894.08;1753923;80;21590;-61
2021/04/15 07:35:29;;;;;;;15.10;13.48;;;;;;;12.77;61.64;98896.77;1751639;81;21491;-62
2021/04/15 07:38:45;;;;;;;14.65;13.15;;;;;;;12.61;62.40;98902.03;1773636;80;21051;-61
2021/04/15 07:41:44;;;;;;;13.28;11.75;;;;;;;12.40;63.27;98897.59;1743928;82;21170;-62
2021/04/15 07:44:23;;;;;;;16.10;14.45;;;;;;;12.22;63.90;98897.35;1743128;82;21080;-63
2021/04/15 07:47:12;;;;;;;18.52;15.98;;;;;;;12.19;64.85;98901.93;1741174;81;21179;-64
2021/04/15 07:50:17;;;;;;;16.62;14.93;;;;;;;12.21;65.11;98901.34;1816035;79;21183;-63
2021/04/15 07:53:29;;;;;;;15.40;13.68;;;;;;;12.18;65.67;98903.70;1816341;79;21415;-63
2021/04/15 07:56:30;;;;;;;;;;;;;;;12.14;65.41;98904.79;1818908;78;21087;-63
2021/04/15 07:59:18;;;;;;;13.13;11.83;;;;;;;12.15;65.63;98904.33;1815897;79;20488;-61
2021/04/15 08:02:37;;;;;;;14.63;12.90;;;;;;;12.05;65.52;98906.59;1815816;79;21107;-61
2021/04/15 08:05:42;;;;;;;16.30;14.63;;;;;;;11.98;65.10;98903.52;1727249;81;21183;-62
2021/04/15 08:08:49;;;;;;;16.10;12.93;;;;;;;11.99;65.33;98899.95;1727287;83;21382;-63
2021/04/15 08:11:25;;;;;;;16.02;14.30;;;;;;;12.01;65.65;98906.39;1805962;79;21813;-62
2021/04/15 08:14:29;;;;;;;14.20;12.80;;;;;;;12.02;66.32;98901.09;1815826;79;21071;-63
2021/04/15 08:17:15;;;;;;;;;;;;;;;12.02;66.62;98893.27;1818482;78;21016;-62
2021/04/15 08:20:06;;;;;;;14.25;12.07;;;;;;;12.05;66.98;98888.35;1815869;79;20217;-62
2021/04/15 08:23:34;;;;;;;12.90;11.48;;;;;;;12.13;66.70;98894.45;1816041;79;21558;-63
2021/04/15 08:26:25;;;;;;;14.75;13.20;;;;;;;12.30;65.84;98887.80;1815701;79;20941;-63
2021/04/15 08:29:25;;;;;;;12.80;11.50;;;;;;;12.46;65.55;98879.45;1815803;79;21162;-62
2021/04/15 08:32:10;;;;;;;15.48;13.15;;;;;;;12.61;64.56;98878.55;1815760;79;21061;-62
2021/04/15 08:34:43;;;;;;;15.70;12.85;;;;;;;12.80;64.21;98886.59;1815664;79;21111;-62
2021/04/15 08:37:37;;;;;;;13.88;12.47;;;;;;;12.97;63.90;98879.45;1815741;78;21083;-63
2021/04/15 08:40:38;;;;;;;14.50;11.80;;;;;;;13.07;63.60;98879.25;1815896;78;21079;-62
2021/04/15 08:43:23;;;;;;;14.65;12.63;;;;;;;13.28;62.83;98878.89;1764371;79;21039;-64
2021/04/15 08:46:14;;;;;;;16.07;12.35;;;;;;;13.49;61.59;98879.34;1814783;78;21071;-62
2021/04/15 08:49:17;;;;;;;16.97;12.25;;;;;;;13.69;59.32;98876.31;1709990;83;21103;-62
2021/04/15 08:52:05;;;;;;;9.98;8.98;;;;;;;13.90;58.01;98867.56;1808835;79;21358;-62
2021/04/15 08:54:56;;;;;;;8.85;7.95;;;;;;;14.10;55.83;98864.50;1813734;79;21064;-63
2021/04/15 08:57:43;;;;;;;11.43;9.88;;;;;;;14.26;53.25;98865.16;1813757;79;21158;-62
2021/04/15 09:00:25;;;;;;;19.67;12.93;;;;;;;14.37;53.59;98868.39;1789332;79;21079;-62
2021/04/15 09:03:29;;;;;;;11.78;10.68;;;;;;;14.50;53.88;98864.50;1813498;79;21586;-63
2021/04/15 09:06:22;;;;;;;15.48;11.50;;;;;;;14.69;53.23;98857.09;1811292;79;21353;-64
2021/04/15 09:09:08;;;;;;;13.55;11.68;;;;;;;14.87;52.73;98852.38;1813148;79;21205;-62
2021/04/15 09:11:55;;;;;;;17.07;11.50;;;;;;;15.00;52.41;98851.41;1801821;79;21202;-63
2021/04/15 09:14:44;;;;;;;13.43;11.33;;;;;;;15.03;51.65;98847.27;1812566;79;21629;-63
2021/04/15 09:17:21;;;;;;;14.50;11.03;;;;;;;15.01;51.12;98846.54;1813288;79;21162;-64
2021/04/15 09:20:03;;;;;;;12.05;10.82;;;;;;;15.03;50.30;98842.51;1806530;79;21223;-63
2021/04/15 09:22:54;;;;;;;17.37;9.90;;;;;;;15.01;50.12;98841.30;1812099;79;21190;-64
2021/04/15 09:25:47;;;;;;;15.48;7.35;;;;;;;15.00;49.72;98842.72;1812297;79;21638;-62
2021/04/15 09:28:40;;;;;;;18.20;7.15;;;;;;;14.99;48.34;98838.42;1782158;79;21594;-62
2021/04/15 09:31:51;;;;;;;15.60;8.10;;;;;;;14.96;47.96;98834.73;1813749;79;21083;-62
2021/04/15 09:34:43;;;;;;;7.58;6.05;;;;;;;14.97;47.83;98837.72;1813836;79;21194;-62
2021/04/15 09:37:39;;;;;;;8.55;7.35;;;;;;;15.00;47.69;98841.41;1813163;79;21528;-62
2021/04/15 09:40:11;;;;;;;10.20;7.72;;;;;;;15.01;47.69;98843.08;1813761;79;21184;-63
2021/04/15 09:43:20;;;;;;;16.80;7.90;;;;;;;15.00;47.89;98843.55;1813788;79;21461;-63
2021/04/15 09:46:39;;;;;;;18.10;9.85;;;;;;;14.97;47.84;98843.80;1808560;78;21545;-62
2021/04/15 09:49:19;;;;;;;11.63;9.73;;;;;;;14.73;50.68;98853.33;1783884;80;21368;-63
2021/04/15 09:52:29;;;;;;;10.78;9.68;;;;;;;14.27;53.11;98851.61;1783876;80;21132;-63
2021/04/15 09:55:26;;;;;;;11.60;9.38;;;;;;;13.98;54.92;98858.77;1783847;80;21108;-63
2021/04/15 09:58:23;;;;;;;9.00;8.20;;;;;;;13.66;57.12;98864.27;1783947;80;21184;-62
2021/04/15 10:00:56;;;;;;;7.83;7.08;;;;;;;13.42;58.71;98861.89;1783892;80;21469;-62
2021/04/15 10:03:56;;;;;;;9.08;7.20;;;;;;;13.28;59.89;98858.84;1784067;80;21132;-63
2021/04/15 10:06:47;;;;;;;8.00;7.20;;;;;;;13.19;59.55;98859.40;1783818;80;21180;-62
2021/04/15 10:09:50;;;;;;;7.65;6.55;;;;;;;13.16;59.94;98854.86;1782775;80;21160;-62
2021/04/15 10:12:32;;;;;;;8.58;7.78;;;;;;;13.13;59.28;98865.45;1783910;80;21080;-63
2021/04/15 10:15:35;;;;;;;8.55;7.67;;;;;;;13.15;58.09;98858.37;1784033;80;21481;-63
2021/04/15 10:18:13;;;;;;;10.15;9.08;;;;;;;13.15;59.50;98857.06;1783893;80;21474;-63
2021/04/15 10:21:03;;;;;;;10.05;9.05;;;;;;;13.16;59.39;98858.31;1760444;80;21086;-62
2021/04/15 10:23:42;;;;;;;9.75;8.95;;;;;;;13.20;59.43;98848.48;1783940;80;21068;-63
2021/04/15 10:26:44;;;;;;;9.85;8.60;;;;;;;13.17;59.48;98847.41;1725533;80;21073;-63
2021/04/15 10:29:53;;;;;;;9.35;8.40;;;;;;;13.06;60.97;98849.31;1711194;83;21103;-62
2021/04/15 10:33:01;;;;;;;8.65;7.87;;;;;;;12.92;60.38;98847.56;1744085;82;22369;-62
2021/04/15 10:36:11;;;;;;;8.30;7.45;;;;;;;12.79;60.10;98845.80;1744066;82;21088;-63
2021/04/15 10:39:24;;;;;;;8.08;7.37;;;;;;;12.65;59.59;98850.52;1743974;82;21093;-63
2021/04/15 10:42:35;;;;;;;7.58;6.97;;;;;;;12.59;59.58;98841.27;1744382;81;21632;-62
2021/04/15 10:45:38;;;;;;;6.10;5.50;;;;;;;12.62;59.43;98833.73;1744126;81;21122;-62
2021/04/15 10:48:14;;;;;;;4.95;4.55;;;;;;;12.76;58.16;98841.59;1774117;80;21391;-62
2021/04/15 10:51:29;;;;;;;5.35;4.85;;;;;;;12.88;56.52;98842.61;1761656;81;21850;-63
2021/04/15 10:54:02;;;;;;;4.77;4.37;;;;;;;12.90;57.38;98843.36;1744330;82;21012;-62
2021/04/15 10:56:34;;;;;;;4.97;4.58;;;;;;;12.98;56.63;98838.52;1742162;82;21227;-62
2021/04/15 10:59:16;;;;;;;5.42;4.95;;;;;;;13.07;56.09;98844.00;1761826;81;21059;-64
2021/04/15 11:01:47;;;;;;;;;;;;;;;13.11;56.39;98842.89;1746603;82;21503;-62
2021/04/15 11:04:26;;;;;;;7.67;6.60;;;;;;;13.23;57.58;98849.61;1761646;81;20229;-62
2021/04/15 11:07:08;;;;;;;10.30;6.62;;;;;;;13.32;58.00;98849.05;1743959;82;21155;-62
2021/04/15 11:09:39;;;;;;;10.85;6.50;;;;;;;13.38;58.51;98848.21;1751471;81;21146;-63
2021/04/15 11:12:25;;;;;;;10.60;6.97;;;;;;;13.42;58.31;98853.59;1744148;82;21163;-63
2021/04/15 11:14:58;;;;;;;7.15;6.45;;;;;;;13.38;58.30;98853.44;1744066;82;21381;-61
2021/04/15 11:17:41;;;;;;;6.37;5.62;;;;;;;13.28;59.23;98856.70;1774804;80;21140;-63
2021/04/15 11:20:29;;;;;;;6.20;5.28;;;;;;;13.18;58.81;98863.44;1761670;81;21130;-63
2021/04/15 11:23:15;;;;;;;6.25;5.75;;;;;;;12.99;58.33;98858.48;1744101;82;21503;-62
2021/04/15 11:25:50;;;;;;;7.50;6.78;;;;;;;12.84;59.42;98857.61;1761644;81;21063;-62
2021/04/15 11:28:24;;;;;;;6.95;6.20;;;;;;;12.73;60.65;98864.80;1744067;82;21387;-62
2021/04/15 11:30:57;;;;;;;;;;;;;;;12.65;59.27;98859.64;1764339;81;21559;-62
2021/04/15 11:33:41;;;;;;;6.67;5.70;;;;;;;12.53;59.60;98858.61;1761728;81;20223;-62
2021/04/15 11:36:18;;;;;;;6.45;5.85;;;;;;;12.45;59.35;98858.22;1744161;82;21083;-62
2021/04/15 11:39:07;;;;;;;14.53;7.65;;;;;;;12.37;60.24;98852.16;1744191;81;21111;-62
2021/04/15 11:41:49;;;;;;;10.45;6.78;;;;;;;12.34;61.14;98854.11;1774842;80;23504;-62
2021/04/15 11:44:27;;;;;;;10.20;7.35;;;;;;;12.34;61.26;98861.47;1761969;81;21571;-62
2021/04/15 11:47:08;;;;;;;7.95;7.12;;;;;;;12.34;60.93;98860.16;1744003;82;21123;-61
2021/04/15 11:49:43;;;;;;;7.25;6.55;;;;;;;12.32;60.96;98851.58;1742603;82;21147;-62
2021/04/15 11:52:32;;;;;;;6.87;6.25;;;;;;;12.33;61.46;98855.88;1743944;82;21063;-62
2021/04/15 11:55:14;;;;;;;7.40;6.72;;;;;;;12.40;61.63;98848.51;1774354;80;21153;-62
2021/04/15 11:57:55;;;;;;;10.50;7.37;;;;;;;12.52;61.72;98846.50;1815854;78;24667;-63
2021/04/15 12:00:32;;;;;;;11.73;8.45;;;;;;;12.63;61.44;98846.69;1800927;79;21531;-63
2021/04/15 12:03:06;;;;;;;6.80;6.20;;;;;;;12.65;61.20;98844.83;1815898;79;21027;-63
2021/04/15 12:05:41;;;;;;;;;;;;;;;12.67;60.69;98846.05;1818486;78;21102;-62
2021/04/15 12:08:37;;;;;;;7.20;6.35;;;;;;;12.67;60.80;98844.74;1815924;79;22105;-63
2021/04/15 12:11:20;;;;;;;9.63;6.17;;;;;;;12.69;60.38;98835.89;1815699;78;21166;-62
2021/04/15 12:13:56;;;;;;;9.85;6.45;;;;;;;12.78;60.45;98839.73;1815811;79;21071;-62
2021/04/15 12:16:50;;;;;;;6.28;5.25;;;;;;;12.90;60.31;98840.75;1787338;79;21170;-63
2021/04/15 12:19:46;;;;;;;6.62;4.90;;;;;;;12.97;59.50;98831.62;1815829;78;21072;-62
2021/04/15 12:22:23;;;;;;;8.83;5.25;;;;;;;13.02;59.40;98839.52;1815621;79;21606;-62
2021/04/15 12:25:08;;;;;;;6.90;5.50;;;;;;;13.05;58.71;98831.51;1815726;78;21059;-62
2021/04/15 12:27:37;;;;;;;5.53;4.90;;;;;;;13.14;58.83;98831.89;1815709;79;21598;-63
2021/04/15 12:30:22;;;;;;;9.85;5.60;;;;;;;13.25;58.36;98824.23;1815759;78;21562;-62
2021/04/15 12:32:59;;;;;;;6.40;5.25;;;;;;;13.36;58.41;98820.04;1815855;79;21075;-62
2021/04/15 12:35:43;;;;;;;4.60;4.20;;;;;;;13.53;58.02;98828.11;1815889;79;21603;-63
2021/04/15 12:38:40;;;;;;;4.60;4.20;;;;;;;13.70;57.58;98814.80;1794076;79;21051;-61
2021/04/15 12:41:11;;;;;;;6.25;4.83;;;;;;;13.81;56.13;98815.39;1747200;82;21107;-61
2021/04/15 12:43:44;;;;;;;6.92;5.22;;;;;;;13.91;54.78;98813.88;1815710;78;21059;-62